Time;durP1;ratioP1;P1;durP2;ratioP2;P2;SDS_P1;SDS_P2;PMS_P1;PMS_P2;Temp;Humidity;BMP_temperature;BMP_pressure;BME280_temperature;BME280_humidity;BME280_pressure;Samples;Min_cycle;Max_cycle;Signal;HPM_P1;HPM_P2
2023/09/21 00:01:12;;;;;;;1999.90;999.90;;;18.10;99.90;;;;;;5080833;28;20508;-71
2023/09/21 00:03:40;;;;;;;1999.90;999.90;;;18.00;99.90;;;;;;5089553;28;20475;-71
2023/09/21 00:06:07;;;;;;;1999.90;999.90;;;18.00;99.90;;;;;;5090566;28;20458;-71
2023/09/21 00:08:34;;;;;;;1999.90;999.90;;;18.00;99.90;;;;;;5090004;28;20425;-71
2023/09/21 00:11:03;;;;;;;1999.90;999.90;;;18.10;99.90;;;;;;5081894;28;20424;-70
2023/09/21 00:13:31;;;;;;;1999.90;999.90;;;18.00;99.90;;;;;;5087109;28;20430;-75
2023/09/21 00:16:00;;;;;;;1999.90;999.90;;;18.00;99.90;;;;;;5084571;28;20490;-71
2023/09/21 00:18:29;;;;;;;1999.90;999.90;;;18.20;99.90;;;;;;5090340;28;20548;-71
2023/09/21 00:20:57;;;;;;;1999.90;999.90;;;18.30;99.90;;;;;;5087976;28;20454;-71
2023/09/21 00:23:25;;;;;;;1999.90;999.90;;;18.20;99.90;;;;;;5087641;28;20426;-70
2023/09/21 00:25:57;;;;;;;1999.90;999.90;;;18.10;99.90;;;;;;5088870;28;20433;-71
2023/09/21 00:28:24;;;;;;;1999.90;999.90;;;18.00;99.90;;;;;;5089720;28;20429;-71
2023/09/21 00:30:57;;;;;;;1999.90;999.90;;;18.10;99.90;;;;;;5089366;28;20425;-70
2023/09/21 00:33:24;;;;;;;1999.90;999.90;;;18.10;99.90;;;;;;5084651;28;20923;-69
2023/09/21 00:35:52;;;;;;;1999.90;999.90;;;18.10;99.90;;;;;;5086646;28;20434;-72
2023/09/21 00:38:20;;;;;;;1999.90;999.90;;;18.00;99.90;;;;;;5081055;28;20433;-69
2023/09/21 00:40:48;;;;;;;1999.90;999.90;;;18.10;99.90;;;;;;5088525;28;20429;-70
2023/09/21 00:43:21;;;;;;;1999.90;999.90;;;18.00;99.90;;;;;;5082029;28;20429;-69
2023/09/21 00:45:51;;;;;;;1999.90;999.90;;;18.00;99.90;;;;;;5085658;28;20432;-70
2023/09/21 00:48:22;;;;;;;1999.90;999.90;;;18.00;99.90;;;;;;5086224;28;20566;-70
2023/09/21 00:50:51;;;;;;;1999.90;999.90;;;18.00;99.90;;;;;;5082687;28;20440;-71
2023/09/21 00:53:19;;;;;;;1999.90;999.90;;;18.00;99.90;;;;;;5085093;28;20433;-71
2023/09/21 00:55:49;;;;;;;1999.90;999.90;;;18.00;99.90;;;;;;5084776;28;20453;-71
2023/09/21 00:58:17;;;;;;;1999.90;999.90;;;18.00;99.90;;;;;;5082282;28;20513;-71
2023/09/21 01:00:45;;;;;;;1999.90;999.90;;;18.00;99.90;;;;;;5087753;28;20434;-71
2023/09/21 01:03:14;;;;;;;1999.90;999.90;;;18.00;99.90;;;;;;5088629;28;20457;-73
2023/09/21 01:05:41;;;;;;;1999.90;999.90;;;17.90;99.90;;;;;;5081719;28;20953;-70
2023/09/21 01:08:10;;;;;;;1999.90;999.90;;;17.90;99.90;;;;;;5078908;28;20478;-71
2023/09/21 01:10:41;;;;;;;1999.90;999.90;;;18.10;99.90;;;;;;5085986;28;20521;-71
2023/09/21 01:13:11;;;;;;;1999.90;999.90;;;18.20;99.90;;;;;;5087785;28;20818;-70
2023/09/21 01:15:37;;;;;;;1999.90;999.90;;;18.20;99.90;;;;;;5081517;28;20491;-71
2023/09/21 01:18:07;;;;;;;1999.90;999.90;;;18.20;99.90;;;;;;5084500;28;20444;-71
2023/09/21 01:20:34;;;;;;;1999.90;999.90;;;18.30;99.90;;;;;;5086585;28;20458;-72
2023/09/21 01:23:11;;;;;;;1999.90;999.90;;;18.40;99.90;;;;;;5083246;28;21203;-71
2023/09/21 01:25:41;;;;;;;1999.90;999.90;;;18.50;99.90;;;;;;5085511;28;20425;-71
2023/09/21 01:28:09;;;;;;;1999.90;999.90;;;18.50;99.90;;;;;;5085533;28;20425;-71
2023/09/21 01:30:37;;;;;;;1999.90;999.90;;;18.50;99.90;;;;;;5085002;28;20828;-70
2023/09/21 01:33:08;;;;;;;1999.90;999.90;;;18.50;99.90;;;;;;5085811;28;20437;-70
2023/09/21 01:35:36;;;;;;;1999.90;999.90;;;18.50;99.90;;;;;;5084281;28;20429;-70
2023/09/21 01:38:05;;;;;;;1999.90;999.90;;;18.40;99.90;;;;;;5074853;28;20426;-71
2023/09/21 01:40:32;;;;;;;1999.90;999.90;;;18.40;99.90;;;;;;5086997;28;20801;-70
2023/09/21 01:43:03;;;;;;;1999.90;999.90;;;18.40;99.90;;;;;;5082827;28;20788;-70
2023/09/21 01:45:30;;;;;;;1999.90;999.90;;;18.40;99.90;;;;;;5081629;28;20423;-71
2023/09/21 01:47:57;;;;;;;1999.90;999.90;;;18.50;99.90;;;;;;5088851;28;20468;-71
2023/09/21 01:50:25;;;;;;;1999.90;999.90;;;18.40;99.90;;;;;;5081735;28;20936;-71
2023/09/21 01:52:52;;;;;;;1999.90;999.90;;;18.50;99.90;;;;;;5080846;28;20799;-71
2023/09/21 01:55:19;;;;;;;1999.90;999.90;;;18.30;99.90;;;;;;5086033;28;20437;-71
2023/09/21 01:57:45;;;;;;;1999.90;999.90;;;18.00;99.90;;;;;;5089065;28;20430;-73
2023/09/21 02:00:22;;;;;;;1999.90;999.90;;;17.70;99.90;;;;;;5086344;28;20430;-69
2023/09/21 02:02:51;;;;;;;1999.90;999.90;;;17.40;99.90;;;;;;5081584;28;20516;-71
2023/09/21 02:05:18;;;;;;;1999.90;999.90;;;17.20;99.90;;;;;;5083740;28;20429;-71
2023/09/21 02:07:45;;;;;;;1999.90;999.90;;;17.10;99.90;;;;;;5088506;28;20477;-71
2023/09/21 02:10:13;;;;;;;1999.90;999.90;;;17.10;99.90;;;;;;5085790;28;20438;-71
2023/09/21 02:12:40;;;;;;;1999.90;999.90;;;17.00;99.90;;;;;;5085929;28;20427;-72
2023/09/21 02:15:11;;;;;;;1999.90;999.90;;;16.90;99.90;;;;;;5083830;28;20423;-71
2023/09/21 02:17:41;;;;;;;1999.90;999.90;;;16.70;99.90;;;;;;5087499;28;20440;-71
2023/09/21 02:20:13;;;;;;;1999.90;999.90;;;16.60;99.90;;;;;;5088768;28;20421;-71
2023/09/21 02:22:41;;;;;;;1999.90;999.90;;;16.70;99.90;;;;;;5092318;28;20430;-70
2023/09/21 02:25:11;;;;;;;1999.90;999.90;;;16.70;99.90;;;;;;5085572;28;20425;-71
2023/09/21 02:27:38;;;;;;;1999.90;999.90;;;16.70;99.90;;;;;;5087850;28;20453;-70
2023/09/21 02:30:14;;;;;;;1999.90;999.90;;;16.80;99.90;;;;;;5088087;28;20491;-73
2023/09/21 02:32:43;;;;;;;1999.90;999.90;;;16.80;99.90;;;;;;5083262;28;20436;-72
2023/09/21 02:35:13;;;;;;;1999.90;999.90;;;16.90;99.90;;;;;;5089159;28;20426;-71
2023/09/21 02:37:42;;;;;;;1999.90;999.90;;;17.00;99.90;;;;;;5083228;28;20426;-71
2023/09/21 02:40:14;;;;;;;1999.90;999.90;;;17.00;99.90;;;;;;5083301;28;20943;-71
2023/09/21 02:42:41;;;;;;;1999.90;999.90;;;17.00;99.90;;;;;;5079045;28;20483;-71
2023/09/21 02:45:10;;;;;;;1999.90;999.90;;;17.00;99.90;;;;;;5082610;28;20926;-72
2023/09/21 02:47:37;;;;;;;1999.90;999.90;;;17.00;99.90;;;;;;5092018;28;20425;-70
2023/09/21 02:50:14;;;;;;;1999.90;999.90;;;17.10;99.90;;;;;;5091241;28;20433;-71
2023/09/21 02:52:44;;;;;;;1999.90;999.90;;;17.20;99.90;;;;;;5086831;28;21116;-70
2023/09/21 02:55:11;;;;;;;1999.90;999.90;;;17.40;99.90;;;;;;5090604;28;20414;-70
2023/09/21 02:57:39;;;;;;;1999.90;999.90;;;17.50;99.90;;;;;;5084990;28;20453;-73
2023/09/21 03:00:20;;;;;;;1999.90;999.90;;;17.60;99.90;;;;;;5070401;28;20426;-72
2023/09/21 03:02:47;;;;;;;1999.90;999.90;;;17.70;99.90;;;;;;5076916;28;20437;-71
2023/09/21 03:05:17;;;;;;;1999.90;999.90;;;17.70;99.90;;;;;;5071239;28;20542;-71
2023/09/21 03:07:45;;;;;;;1999.90;999.90;;;17.80;99.90;;;;;;5077176;28;20448;-71
2023/09/21 03:10:12;;;;;;;1999.90;999.90;;;17.80;99.90;;;;;;5071939;28;20448;-70
2023/09/21 03:12:39;;;;;;;1999.90;999.90;;;17.80;99.90;;;;;;5078132;28;20467;-73
2023/09/21 03:15:13;;;;;;;1999.90;999.90;;;17.80;99.90;;;;;;5071641;28;20422;-71
2023/09/21 03:17:40;;;;;;;1999.90;999.90;;;17.90;99.90;;;;;;5072287;28;20440;-72
2023/09/21 03:20:25;;;;;;;1999.90;999.90;;;17.90;99.90;;;;;;5071573;28;20438;-71
2023/09/21 03:22:54;;;;;;;1999.90;999.90;;;17.90;99.90;;;;;;5075763;28;20429;-70
2023/09/21 03:25:25;;;;;;;1999.90;999.90;;;18.00;99.90;;;;;;5080305;28;20483;-69
2023/09/21 03:27:53;;;;;;;1999.90;999.90;;;18.10;99.90;;;;;;5087587;28;20513;-73
2023/09/21 03:30:20;;;;;;;1999.90;999.90;;;18.20;99.90;;;;;;5073778;28;20931;-73
2023/09/21 03:32:47;;;;;;;1999.90;999.90;;;18.20;99.90;;;;;;5075608;28;20422;-68
2023/09/21 03:35:14;;;;;;;1999.90;999.90;;;18.20;99.90;;;;;;5088615;28;20486;-70
2023/09/21 03:37:43;;;;;;;1999.90;999.90;;;18.20;99.90;;;;;;5079950;28;20435;-70
2023/09/21 03:40:11;;;;;;;1999.90;999.90;;;18.30;99.90;;;;;;5091058;28;20937;-71
2023/09/21 03:42:38;;;;;;;1999.90;999.90;;;18.40;99.90;;;;;;5088258;28;20429;-71
2023/09/21 03:45:07;;;;;;;1999.90;999.90;;;18.30;99.90;;;;;;5074859;28;20427;-71
2023/09/21 03:47:34;;;;;;;1999.90;999.90;;;18.30;99.90;;;;;;5073049;28;20873;-71
2023/09/21 03:50:03;;;;;;;1999.90;999.90;;;18.30;99.90;;;;;;5071365;28;20483;-72
2023/09/21 03:52:30;;;;;;;1999.90;999.90;;;18.30;99.90;;;;;;5071921;28;20445;-70
2023/09/21 03:54:57;;;;;;;1999.90;999.90;;;18.20;99.90;;;;;;5071838;28;20461;-71
2023/09/21 03:57:25;;;;;;;1999.90;999.90;;;18.20;99.90;;;;;;5070065;28;20564;-71
2023/09/21 03:59:51;;;;;;;1999.90;999.90;;;18.20;99.90;;;;;;5072741;28;20440;-71
2023/09/21 04:02:19;;;;;;;1999.90;999.90;;;18.20;99.90;;;;;;5075289;28;20439;-70
2023/09/21 04:04:49;;;;;;;1999.90;999.90;;;18.20;99.90;;;;;;5075784;28;20434;-72
2023/09/21 04:07:17;;;;;;;1999.90;999.90;;;18.20;99.90;;;;;;5074410;28;20425;-71
2023/09/21 04:09:44;;;;;;;1999.90;999.90;;;18.10;99.90;;;;;;5083994;28;20434;-71
2023/09/21 04:12:11;;;;;;;1999.90;999.90;;;18.10;99.90;;;;;;5081302;28;20509;-70
2023/09/21 04:14:39;;;;;;;1999.90;999.90;;;18.10;99.90;;;;;;5077571;28;20433;-72
2023/09/21 04:17:06;;;;;;;1999.90;999.90;;;18.10;99.90;;;;;;5081246;28;21214;-71
2023/09/21 04:19:32;;;;;;;1999.90;999.90;;;18.10;99.90;;;;;;5086151;28;20442;-71
2023/09/21 04:21:59;;;;;;;1999.90;999.90;;;18.00;99.90;;;;;;5090084;28;20440;-70
2023/09/21 04:24:26;;;;;;;1999.90;999.90;;;18.00;99.90;;;;;;5085154;28;20536;-70
2023/09/21 04:26:53;;;;;;;1999.90;999.90;;;17.90;99.90;;;;;;5085217;28;20429;-71
2023/09/21 04:29:19;;;;;;;1999.90;999.90;;;17.90;99.90;;;;;;5078386;28;20434;-69
2023/09/21 04:31:47;;;;;;;1999.90;999.90;;;17.80;99.90;;;;;;5080555;28;20431;-71
2023/09/21 04:34:14;;;;;;;1999.90;999.90;;;17.70;99.90;;;;;;5082769;28;20453;-71
2023/09/21 04:36:41;;;;;;;1999.90;999.90;;;17.70;99.90;;;;;;5085383;28;20433;-70
2023/09/21 04:39:08;;;;;;;1999.90;999.90;;;17.70;99.90;;;;;;5085156;28;20434;-69
2023/09/21 04:41:35;;;;;;;1999.90;999.90;;;17.50;99.90;;;;;;5082107;28;20425;-72
2023/09/21 04:44:04;;;;;;;1999.90;999.90;;;17.50;99.90;;;;;;5080724;28;20440;-70
2023/09/21 04:46:31;;;;;;;1999.90;999.90;;;17.40;99.90;;;;;;5086142;28;20862;-68
2023/09/21 04:48:59;;;;;;;1999.90;999.90;;;17.40;99.90;;;;;;5088175;28;20465;-71
2023/09/21 04:51:26;;;;;;;1999.90;999.90;;;17.40;99.90;;;;;;5079060;28;20434;-73
2023/09/21 04:53:52;;;;;;;1999.90;999.90;;;17.80;99.90;;;;;;5085979;28;20429;-71
2023/09/21 04:56:19;;;;;;;1999.90;999.90;;;17.40;99.90;;;;;;5078149;28;20915;-71
2023/09/21 04:58:47;;;;;;;1999.90;999.90;;;17.40;99.90;;;;;;5085655;28;20433;-71
2023/09/21 05:01:14;;;;;;;1999.90;999.90;;;17.40;99.90;;;;;;5085454;28;20512;-69
2023/09/21 05:03:40;;;;;;;1999.90;999.90;;;17.30;99.90;;;;;;5088175;28;20429;-70
2023/09/21 05:06:08;;;;;;;1999.90;999.90;;;17.30;99.90;;;;;;5084218;28;20441;-71
2023/09/21 05:08:36;;;;;;;1999.90;999.90;;;17.40;99.90;;;;;;5081510;28;20429;-71
2023/09/21 05:11:03;;;;;;;1999.90;999.90;;;17.40;99.90;;;;;;5078994;28;20418;-72
2023/09/21 05:13:31;;;;;;;1999.90;999.90;;;17.30;99.90;;;;;;5080777;28;20483;-73
2023/09/21 05:15:57;;;;;;;1999.90;999.90;;;17.40;99.90;;;;;;5085579;28;20487;-71
2023/09/21 05:18:24;;;;;;;1999.90;999.90;;;17.40;99.90;;;;;;5087052;28;20430;-72
2023/09/21 05:20:51;;;;;;;1999.90;999.90;;;17.40;99.90;;;;;;5083742;28;20437;-71
2023/09/21 05:23:19;;;;;;;1999.90;999.90;;;17.40;99.90;;;;;;5083785;28;20491;-70
2023/09/21 05:25:46;;;;;;;1999.90;999.90;;;17.50;99.90;;;;;;5086387;28;20422;-73
2023/09/21 05:28:14;;;;;;;1999.90;999.90;;;17.50;99.90;;;;;;5082288;28;20421;-68
2023/09/21 05:30:41;;;;;;;1999.90;999.90;;;17.50;99.90;;;;;;5084479;28;20491;-69
2023/09/21 05:33:08;;;;;;;1999.90;999.90;;;17.60;99.90;;;;;;5085874;28;20787;-73
2023/09/21 05:35:35;;;;;;;1999.90;999.90;;;17.70;99.90;;;;;;5083381;28;20422;-72
2023/09/21 05:38:05;;;;;;;1999.90;999.90;;;17.80;99.90;;;;;;5089631;28;21100;-71
2023/09/21 05:40:34;;;;;;;1999.90;999.90;;;17.80;99.90;;;;;;5086219;28;20457;-71
2023/09/21 05:43:00;;;;;;;1999.90;999.90;;;17.90;99.90;;;;;;5080870;28;20915;-71
2023/09/21 05:45:27;;;;;;;1999.90;999.90;;;18.00;99.90;;;;;;5086432;28;20429;-69
2023/09/21 05:47:54;;;;;;;1999.90;999.90;;;18.00;99.90;;;;;;5080809;28;20760;-70
2023/09/21 05:50:20;;;;;;;1999.90;999.90;;;18.10;99.90;;;;;;5082633;28;20407;-71
2023/09/21 05:52:47;;;;;;;1999.90;999.90;;;18.20;99.90;;;;;;5086463;28;20783;-71
2023/09/21 05:55:16;;;;;;;1999.90;999.90;;;18.20;99.90;;;;;;5083810;28;20430;-68
2023/09/21 05:57:47;;;;;;;1999.90;999.90;;;18.20;99.90;;;;;;5084705;28;20430;-70
2023/09/21 06:00:15;;;;;;;1999.90;999.90;;;18.20;99.90;;;;;;5084841;28;20425;-70
2023/09/21 06:02:42;;;;;;;1999.90;999.90;;;18.40;99.90;;;;;;5086214;28;20451;-71
2023/09/21 06:05:10;;;;;;;1999.90;999.90;;;18.50;99.90;;;;;;5086143;28;20918;-70
2023/09/21 06:07:37;;;;;;;1999.90;999.90;;;18.60;99.90;;;;;;5077721;28;20437;-71
2023/09/21 06:10:05;;;;;;;1999.90;999.90;;;18.70;99.90;;;;;;5076959;28;20430;-71
2023/09/21 06:12:32;;;;;;;1999.90;999.90;;;18.80;99.90;;;;;;5077543;28;20438;-71
2023/09/21 06:15:00;;;;;;;1999.90;999.90;;;18.90;99.90;;;;;;5077946;28;20438;-71
2023/09/21 06:17:28;;;;;;;1999.90;999.90;;;19.20;99.90;;;;;;5077358;28;22079;-70
2023/09/21 06:19:55;;;;;;;1999.90;999.90;;;19.50;99.90;;;;;;5080068;28;20436;-70
2023/09/21 06:22:22;;;;;;;1999.90;999.90;;;19.80;99.90;;;;;;5086527;28;20417;-70
2023/09/21 06:24:48;;;;;;;1999.90;999.90;;;19.90;99.90;;;;;;5085393;28;20463;-70
2023/09/21 06:27:15;;;;;;;1999.90;999.90;;;20.00;99.90;;;;;;5088309;28;20516;-71
2023/09/21 06:29:43;;;;;;;1999.90;999.90;;;20.10;99.90;;;;;;5086358;28;20412;-71
2023/09/21 06:32:11;;;;;;;1999.90;999.90;;;20.30;99.90;;;;;;5086257;28;20434;-72
2023/09/21 06:34:41;;;;;;;1999.90;999.90;;;20.40;99.90;;;;;;5086900;28;20414;-72
2023/09/21 06:37:09;;;;;;;1999.90;999.90;;;20.50;99.90;;;;;;5083663;28;20433;-71
2023/09/21 06:39:35;;;;;;;1999.90;999.90;;;20.60;99.90;;;;;;5083792;28;20478;-72
2023/09/21 06:42:03;;;;;;;1999.90;999.90;;;20.80;99.90;;;;;;5076953;28;20476;-70
2023/09/21 06:44:30;;;;;;;1999.90;999.90;;;20.90;99.90;;;;;;5084918;28;20425;-72
2023/09/21 06:46:57;;;;;;;1999.90;999.90;;;21.00;99.90;;;;;;5084245;28;20437;-72
2023/09/21 06:49:26;;;;;;;1999.90;999.90;;;21.10;99.90;;;;;;5083019;28;20430;-72
2023/09/21 06:51:54;;;;;;;1999.90;999.90;;;21.20;99.90;;;;;;5085111;28;20442;-71
2023/09/21 06:54:23;;;;;;;1999.90;999.90;;;21.40;99.90;;;;;;5079628;28;20931;-73
2023/09/21 06:56:50;;;;;;;1999.90;999.90;;;21.60;99.90;;;;;;5083933;28;20422;-71
2023/09/21 06:59:17;;;;;;;1999.90;999.90;;;21.80;99.90;;;;;;5085607;28;21018;-71
2023/09/21 07:01:43;;;;;;;1999.90;999.90;;;21.80;99.90;;;;;;5091015;28;20416;-71
2023/09/21 07:04:10;;;;;;;1999.90;999.90;;;21.80;99.90;;;;;;5086063;28;20417;-71
2023/09/21 07:06:39;;;;;;;1999.90;999.90;;;22.00;99.90;;;;;;5085073;28;20827;-73
2023/09/21 07:09:06;;;;;;;1999.90;999.90;;;22.20;99.90;;;;;;5084433;28;20439;-72
2023/09/21 07:11:33;;;;;;;1999.90;999.90;;;22.10;99.90;;;;;;5085388;28;20478;-72
2023/09/21 07:14:00;;;;;;;1999.90;999.90;;;22.00;99.90;;;;;;5086568;28;20915;-72
2023/09/21 07:16:27;;;;;;;1999.90;999.90;;;22.00;99.90;;;;;;5087275;28;20426;-71
2023/09/21 07:18:53;;;;;;;1999.90;999.90;;;21.80;99.90;;;;;;5086133;28;20437;-72
2023/09/21 07:21:20;;;;;;;1999.90;999.90;;;21.80;99.90;;;;;;5083901;28;20441;-72
2023/09/21 07:23:49;;;;;;;1999.90;999.90;;;21.90;99.90;;;;;;5089253;28;20433;-71
2023/09/21 07:26:16;;;;;;;1999.90;999.90;;;21.70;99.90;;;;;;5085626;28;20497;-70
2023/09/21 07:28:44;;;;;;;1999.90;999.90;;;21.70;99.90;;;;;;5088293;28;20429;-72
2023/09/21 07:31:11;;;;;;;1999.90;999.90;;;21.70;99.90;;;;;;5085217;28;20434;-71
2023/09/21 07:33:38;;;;;;;1999.90;999.90;;;21.80;99.90;;;;;;5088118;28;20983;-71
2023/09/21 07:36:06;;;;;;;1999.90;999.90;;;21.80;99.90;;;;;;5090692;28;20422;-71
2023/09/21 07:38:32;;;;;;;1999.90;999.90;;;21.80;99.90;;;;;;5086705;28;20429;-72
2023/09/21 07:41:03;;;;;;;1999.90;999.90;;;22.00;99.90;;;;;;5086608;28;20422;-72
2023/09/21 07:43:29;;;;;;;1999.90;999.90;;;22.00;99.90;;;;;;5085501;28;20433;-73
2023/09/21 07:45:57;;;;;;;1999.90;999.90;;;22.20;99.90;;;;;;5085241;28;20441;-71
2023/09/21 07:48:25;;;;;;;1999.90;999.90;;;22.30;99.90;;;;;;5086979;28;21439;-73
2023/09/21 07:50:55;;;;;;;1999.90;999.90;;;22.50;99.90;;;;;;5088833;28;20491;-72
2023/09/21 07:53:22;;;;;;;1999.90;999.90;;;22.50;99.90;;;;;;5087487;28;20920;-72
2023/09/21 07:55:59;;;;;;;1999.90;999.90;;;22.60;99.90;;;;;;5086110;28;20428;-71
2023/09/21 07:58:27;;;;;;;1999.90;999.90;;;22.80;99.90;;;;;;5079409;28;20939;-71
2023/09/21 08:00:55;;;;;;;1999.90;999.90;;;22.80;99.90;;;;;;5085788;28;20425;-70
2023/09/21 08:03:25;;;;;;;1999.90;999.90;;;23.00;99.90;;;;;;5083271;28;21155;-71
2023/09/21 08:05:52;;;;;;;1999.90;999.90;;;23.00;99.90;;;;;;5087087;28;20445;-71
2023/09/21 08:08:19;;;;;;;1999.90;999.90;;;23.10;99.90;;;;;;5087890;28;20430;-70
2023/09/21 08:10:45;;;;;;;1999.90;999.90;;;23.20;99.90;;;;;;5083467;28;20914;-71
2023/09/21 08:13:12;;;;;;;1999.90;999.90;;;23.20;99.90;;;;;;5085254;28;20514;-71
2023/09/21 08:15:40;;;;;;;1999.90;999.90;;;23.20;99.90;;;;;;5080178;28;20431;-71
2023/09/21 08:18:10;;;;;;;1999.90;999.90;;;23.30;99.90;;;;;;5080413;28;20427;-71
2023/09/21 08:20:39;;;;;;;1999.90;999.90;;;23.30;99.90;;;;;;5081510;28;20437;-70
2023/09/21 08:23:06;;;;;;;1999.90;999.90;;;23.30;99.90;;;;;;5085890;28;20430;-71
2023/09/21 08:25:33;;;;;;;1999.90;999.90;;;23.40;99.90;;;;;;5086235;28;20477;-70
2023/09/21 08:28:00;;;;;;;1999.90;999.90;;;23.50;99.90;;;;;;5085973;28;20521;-71
2023/09/21 08:30:27;;;;;;;1999.90;999.90;;;23.50;99.90;;;;;;5086321;28;20487;-72
2023/09/21 08:32:55;;;;;;;1999.90;999.90;;;23.60;99.90;;;;;;5088464;28;20438;-72
2023/09/21 08:35:22;;;;;;;1999.90;999.90;;;23.60;99.90;;;;;;5087574;28;20424;-71
2023/09/21 08:37:50;;;;;;;1999.90;999.90;;;23.60;99.90;;;;;;5087003;28;20426;-70
2023/09/21 08:40:17;;;;;;;1999.90;999.90;;;23.70;99.90;;;;;;5087780;28;20839;-71
2023/09/21 08:42:46;;;;;;;1999.90;999.90;;;23.80;99.90;;;;;;5089191;28;20905;-70
2023/09/21 08:45:14;;;;;;;1999.90;999.90;;;24.10;99.90;;;;;;5085171;28;20498;-70
2023/09/21 08:47:41;;;;;;;1999.90;999.90;;;23.90;99.90;;;;;;5082822;28;20433;-70
2023/09/21 08:50:10;;;;;;;1999.90;999.90;;;24.10;99.90;;;;;;5086392;28;20804;-72
2023/09/21 08:52:39;;;;;;;1999.90;999.90;;;23.90;99.90;;;;;;5082687;28;20434;-75
2023/09/21 08:55:10;;;;;;;1999.90;999.90;;;23.90;99.70;;;;;;5080357;28;20542;-70
2023/09/21 08:57:37;;;;;;;1999.90;999.90;;;24.00;99.00;;;;;;5082829;28;20549;-70
2023/09/21 09:00:08;;;;;;;1999.90;999.90;;;24.30;98.20;;;;;;5079864;28;20476;-70
2023/09/21 09:02:36;;;;;;;1999.90;999.90;;;24.40;98.10;;;;;;5083896;28;20425;-69
2023/09/21 09:05:06;;;;;;;1999.90;999.90;;;24.60;98.20;;;;;;5082011;28;20433;-70
2023/09/21 09:07:39;;;;;;;1999.90;999.90;;;24.60;97.60;;;;;;5080575;28;20507;-70
2023/09/21 09:10:07;;;;;;;1999.90;999.90;;;24.50;96.90;;;;;;5083625;28;21433;-68
2023/09/21 09:12:33;;;;;;;1999.90;999.90;;;24.60;96.40;;;;;;5077776;28;20838;-71
2023/09/21 09:15:02;;;;;;;1999.90;999.90;;;24.40;97.50;;;;;;5080933;28;20434;-70
2023/09/21 09:17:31;;;;;;;1999.90;999.90;;;24.40;98.30;;;;;;5082451;28;20437;-70
2023/09/21 09:20:02;;;;;;;1999.90;999.90;;;24.40;98.50;;;;;;5077406;28;20905;-70
2023/09/21 09:22:31;;;;;;;1999.90;999.90;;;24.50;98.60;;;;;;5083111;28;20457;-70
2023/09/21 09:25:04;;;;;;;1999.90;999.90;;;24.50;99.00;;;;;;5080931;28;20432;-69
2023/09/21 09:27:31;;;;;;;1999.90;999.90;;;24.70;99.00;;;;;;5081059;28;20908;-70
2023/09/21 09:29:59;;;;;;;1999.90;999.90;;;24.70;98.70;;;;;;5082149;28;20448;-70
2023/09/21 09:32:34;;;;;;;1999.90;999.90;;;24.80;99.10;;;;;;5083601;28;20429;-70
2023/09/21 09:35:02;;;;;;;1999.90;999.90;;;25.10;99.10;;;;;;5084902;28;20513;-70
2023/09/21 09:37:28;;;;;;;1999.90;999.90;;;25.20;98.00;;;;;;5087151;28;20437;-70
2023/09/21 09:39:56;;;;;;;1999.90;999.90;;;25.10;98.50;;;;;;5080015;28;20433;-71
2023/09/21 09:42:27;;;;;;;1999.90;999.90;;;25.10;98.60;;;;;;5084754;28;20437;-69
2023/09/21 09:44:59;;;;;;;1999.90;999.90;;;25.10;98.30;;;;;;5082648;28;20438;-70
2023/09/21 09:47:31;;;;;;;1999.90;999.90;;;25.10;98.50;;;;;;5076683;28;20450;-69
2023/09/21 09:49:58;;;;;;;1999.90;999.90;;;25.10;98.90;;;;;;5078656;28;20430;-70
2023/09/21 09:52:26;;;;;;;1999.90;999.90;;;25.10;99.20;;;;;;5080900;28;20467;-70
2023/09/21 09:54:56;;;;;;;1999.90;999.90;;;25.20;99.20;;;;;;5078589;28;20435;-72
2023/09/21 09:57:25;;;;;;;1999.90;999.90;;;25.00;99.00;;;;;;5081547;28;20516;-70
2023/09/21 09:59:52;;;;;;;1999.90;999.90;;;24.90;99.30;;;;;;5077823;28;20425;-71
2023/09/21 10:02:20;;;;;;;1999.90;999.90;;;24.70;99.40;;;;;;5084592;28;20959;-70
2023/09/21 10:04:47;;;;;;;1999.90;999.90;;;24.70;99.40;;;;;;5083990;28;20799;-70
2023/09/21 10:07:17;;;;;;;1999.90;999.90;;;24.90;99.70;;;;;;5089198;28;20921;-70
2023/09/21 10:09:45;;;;;;;1999.90;999.90;;;24.80;99.00;;;;;;5085937;28;20429;-70
2023/09/21 10:12:14;;;;;;;1999.90;999.90;;;24.90;99.30;;;;;;5079721;28;20509;-69
2023/09/21 10:14:45;;;;;;;1999.90;999.90;;;24.90;99.70;;;;;;5083922;28;20781;-70
2023/09/21 10:17:14;;;;;;;1999.90;999.90;;;25.00;99.60;;;;;;5083023;28;20516;-70
2023/09/21 10:19:43;;;;;;;1999.90;999.90;;;25.20;99.70;;;;;;5076297;28;20435;-71
2023/09/21 10:22:23;;;;;;;1999.90;999.90;;;25.10;99.90;;;;;;5078243;28;20425;-70
2023/09/21 10:24:53;;;;;;;1999.90;999.90;;;24.90;99.80;;;;;;5082565;28;20437;-71
2023/09/21 10:27:23;;;;;;;1999.90;999.90;;;25.00;99.90;;;;;;5079071;28;20435;-71
2023/09/21 10:29:59;;;;;;;1999.90;999.90;;;25.10;99.90;;;;;;5077492;28;20475;-69
2023/09/21 10:32:27;;;;;;;1999.90;999.90;;;25.30;99.60;;;;;;5081307;28;20841;-71
2023/09/21 10:34:55;;;;;;;1999.90;999.90;;;25.50;99.60;;;;;;5089837;28;20486;-69
2023/09/21 10:37:26;;;;;;;1999.90;999.90;;;25.60;99.30;;;;;;5081235;28;20909;-69
2023/09/21 10:39:58;;;;;;;1999.90;999.90;;;25.70;99.30;;;;;;5084646;28;20433;-71
2023/09/21 10:42:33;;;;;;;1999.90;999.90;;;25.80;99.00;;;;;;5084306;28;20433;-70
2023/09/21 10:45:07;;;;;;;1999.90;999.90;;;25.70;99.20;;;;;;5085078;28;20447;-70
2023/09/21 10:47:51;;;;;;;1999.90;999.90;;;25.70;99.20;;;;;;5082283;28;20471;-70
2023/09/21 10:50:20;;;;;;;1999.90;999.90;;;25.80;99.00;;;;;;5081422;28;20431;-70
2023/09/21 10:52:50;;;;;;;1999.90;999.90;;;26.00;99.10;;;;;;5086793;28;20524;-71
2023/09/21 10:55:18;;;;;;;1999.90;999.90;;;26.20;98.80;;;;;;5081431;28;20433;-73
2023/09/21 10:57:47;;;;;;;1999.90;999.90;;;26.40;98.70;;;;;;5091449;28;20788;-71
2023/09/21 11:00:18;;;;;;;1999.90;999.90;;;26.40;98.60;;;;;;5085202;28;20438;-70
2023/09/21 11:02:46;;;;;;;1999.90;999.90;;;26.40;98.70;;;;;;5080611;28;20435;-69
2023/09/21 11:05:16;;;;;;;1999.90;999.90;;;26.50;98.40;;;;;;5086019;28;20841;-70
2023/09/21 11:07:43;;;;;;;1999.90;999.90;;;26.50;97.80;;;;;;5088944;28;20452;-71
2023/09/21 11:10:11;;;;;;;1999.90;999.90;;;26.30;97.80;;;;;;5086943;28;20434;-71
2023/09/21 11:12:40;;;;;;;1999.90;999.90;;;26.40;98.30;;;;;;5081754;28;20911;-69
2023/09/21 11:15:09;;;;;;;1999.90;999.90;;;26.30;97.90;;;;;;5080478;28;20427;-71
2023/09/21 11:17:37;;;;;;;1999.90;999.90;;;25.90;98.20;;;;;;5074224;28;20434;-73
2023/09/21 11:20:05;;;;;;;1999.90;999.90;;;25.60;98.90;;;;;;5088474;28;20446;-70
2023/09/21 11:22:33;;;;;;;1999.90;999.90;;;25.60;99.60;;;;;;5085166;28;20475;-69
2023/09/21 11:25:00;;;;;;;1999.90;999.90;;;25.50;99.60;;;;;;5082942;28;20426;-69
2023/09/21 11:27:28;;;;;;;1999.90;999.90;;;25.60;99.40;;;;;;5085401;28;20448;-71
2023/09/21 11:29:55;;;;;;;1999.90;999.90;;;25.70;99.50;;;;;;5079918;28;20428;-69
2023/09/21 11:32:23;;;;;;;1999.90;999.90;;;25.60;99.60;;;;;;5090994;28;20433;-68
2023/09/21 11:34:58;;;;;;;1999.90;999.90;;;25.40;99.80;;;;;;5089399;28;20441;-67
2023/09/21 11:37:26;;;;;;;1999.90;999.90;;;25.40;99.90;;;;;;5082740;28;20426;-69
2023/09/21 11:39:53;;;;;;;1999.90;999.90;;;25.30;99.60;;;;;;5081202;28;20479;-68
2023/09/21 11:42:20;;;;;;;1999.90;999.90;;;25.20;99.90;;;;;;5084746;28;20448;-70
2023/09/21 11:44:51;;;;;;;1999.90;999.90;;;25.10;99.90;;;;;;5083561;28;20440;-69
2023/09/21 11:47:18;;;;;;;1999.90;999.90;;;25.10;99.90;;;;;;5088583;28;20452;-68
2023/09/21 11:49:45;;;;;;;1999.90;999.90;;;25.00;99.90;;;;;;5085145;28;20422;-66
2023/09/21 11:52:14;;;;;;;1999.90;999.90;;;25.10;99.90;;;;;;5087222;28;20426;-69
2023/09/21 11:54:41;;;;;;;1999.90;999.90;;;25.00;99.90;;;;;;5076048;28;20511;-70
2023/09/21 11:57:09;;;;;;;1999.90;999.90;;;24.90;99.90;;;;;;5090032;28;20429;-68
2023/09/21 11:59:39;;;;;;;1999.90;999.90;;;24.90;99.90;;;;;;5088197;28;21436;-70
2023/09/21 12:02:09;;;;;;;1999.90;999.90;;;25.00;99.90;;;;;;5077444;28;20771;-71
2023/09/21 12:04:38;;;;;;;1999.90;999.90;;;24.50;99.90;;;;;;5086649;28;20798;-72